sensor_id;sensor_type;location;lat;lon;timestamp;P1;durP1;ratioP1;P2;durP2;ratioP2
39314;SDS011;28703;44.412;11.918;2023-07-31T00:01:48;24.75;;;23.17;;
39314;SDS011;28703;44.412;11.918;2023-07-31T00:04:14;23.60;;;21.70;;
39314;SDS011;28703;44.412;11.918;2023-07-31T00:06:40;24.20;;;22.52;;
39314;SDS011;28703;44.412;11.918;2023-07-31T00:09:06;23.05;;;21.48;;
39314;SDS011;28703;44.412;11.918;2023-07-31T00:11:31;28.30;;;25.98;;
39314;SDS011;28703;44.412;11.918;2023-07-31T00:13:58;26.23;;;24.35;;
39314;SDS011;28703;44.412;11.918;2023-07-31T00:16:25;26.17;;;24.15;;
39314;SDS011;28703;44.412;11.918;2023-07-31T00:18:51;26.25;;;24.60;;
39314;SDS011;28703;44.412;11.918;2023-07-31T00:21:17;30.92;;;28.58;;
39314;SDS011;28703;44.412;11.918;2023-07-31T00:23:43;24.20;;;22.30;;
39314;SDS011;28703;44.412;11.918;2023-07-31T00:26:09;9.35;;;8.57;;
39314;SDS011;28703;44.412;11.918;2023-07-31T00:28:35;28.23;;;26.23;;
39314;SDS011;28703;44.412;11.918;2023-07-31T00:31:01;39.22;;;36.72;;
39314;SDS011;28703;44.412;11.918;2023-07-31T00:33:29;26.45;;;24.77;;
39314;SDS011;28703;44.412;11.918;2023-07-31T00:35:56;41.78;;;38.97;;
39314;SDS011;28703;44.412;11.918;2023-07-31T00:38:22;46.05;;;43.08;;
39314;SDS011;28703;44.412;11.918;2023-07-31T00:40:48;34.10;;;31.88;;
39314;SDS011;28703;44.412;11.918;2023-07-31T00:43:14;39.08;;;36.65;;
39314;SDS011;28703;44.412;11.918;2023-07-31T00:45:40;40.33;;;38.00;;
39314;SDS011;28703;44.412;11.918;2023-07-31T00:48:06;41.05;;;38.65;;
39314;SDS011;28703;44.412;11.918;2023-07-31T00:50:33;38.38;;;35.80;;
39314;SDS011;28703;44.412;11.918;2023-07-31T00:52:59;32.92;;;30.85;;
39314;SDS011;28703;44.412;11.918;2023-07-31T00:55:25;41.60;;;39.00;;
39314;SDS011;28703;44.412;11.918;2023-07-31T00:57:51;37.22;;;34.78;;
39314;SDS011;28703;44.412;11.918;2023-07-31T01:00:20;24.08;;;22.40;;
39314;SDS011;28703;44.412;11.918;2023-07-31T01:02:47;38.45;;;36.00;;
39314;SDS011;28703;44.412;11.918;2023-07-31T01:05:17;3.20;;;2.60;;
39314;SDS011;28703;44.412;11.918;2023-07-31T01:10:46;18.05;;;16.77;;
39314;SDS011;28703;44.412;11.918;2023-07-31T01:13:17;6.80;;;6.30;;
39314;SDS011;28703;44.412;11.918;2023-07-31T01:15:44;15.90;;;14.82;;
39314;SDS011;28703;44.412;11.918;2023-07-31T01:18:10;22.73;;;21.10;;
39314;SDS011;28703;44.412;11.918;2023-07-31T01:20:36;13.93;;;12.70;;
39314;SDS011;28703;44.412;11.918;2023-07-31T01:26:09;7.35;;;6.65;;
39314;SDS011;28703;44.412;11.918;2023-07-31T01:31:22;6.38;;;4.72;;
39314;SDS011;28703;44.412;11.918;2023-07-31T01:33:50;11.93;;;7.00;;
39314;SDS011;28703;44.412;11.918;2023-07-31T01:36:19;8.55;;;4.93;;
39314;SDS011;28703;44.412;11.918;2023-07-31T01:38:46;5.05;;;4.57;;
39314;SDS011;28703;44.412;11.918;2023-07-31T01:41:12;5.63;;;4.90;;
39314;SDS011;28703;44.412;11.918;2023-07-31T01:43:42;5.53;;;5.03;;
39314;SDS011;28703;44.412;11.918;2023-07-31T01:46:08;5.68;;;5.28;;
39314;SDS011;28703;44.412;11.918;2023-07-31T01:48:34;6.38;;;5.78;;
39314;SDS011;28703;44.412;11.918;2023-07-31T01:51:02;8.27;;;5.95;;
39314;SDS011;28703;44.412;11.918;2023-07-31T01:53:28;8.98;;;6.10;;
39314;SDS011;28703;44.412;11.918;2023-07-31T01:55:56;8.77;;;7.90;;
39314;SDS011;28703;44.412;11.918;2023-07-31T01:58:22;11.52;;;9.73;;
39314;SDS011;28703;44.412;11.918;2023-07-31T02:00:48;5.78;;;5.28;;
39314;SDS011;28703;44.412;11.918;2023-07-31T02:03:14;17.08;;;15.63;;
39314;SDS011;28703;44.412;11.918;2023-07-31T02:05:44;14.70;;;13.35;;
39314;SDS011;28703;44.412;11.918;2023-07-31T02:08:11;9.50;;;8.75;;
39314;SDS011;28703;44.412;11.918;2023-07-31T02:10:38;11.93;;;11.07;;
39314;SDS011;28703;44.412;11.918;2023-07-31T02:13:04;23.42;;;21.73;;
39314;SDS011;28703;44.412;11.918;2023-07-31T02:15:30;7.32;;;5.60;;
39314;SDS011;28703;44.412;11.918;2023-07-31T02:17:57;9.20;;;5.95;;
39314;SDS011;28703;44.412;11.918;2023-07-31T02:20:24;5.22;;;4.80;;
39314;SDS011;28703;44.412;11.918;2023-07-31T02:22:54;6.10;;;5.60;;
39314;SDS011;28703;44.412;11.918;2023-07-31T02:25:21;37.00;;;34.42;;
39314;SDS011;28703;44.412;11.918;2023-07-31T02:27:47;7.97;;;7.28;;
39314;SDS011;28703;44.412;11.918;2023-07-31T02:30:14;13.55;;;12.70;;
39314;SDS011;28703;44.412;11.918;2023-07-31T02:32:40;21.90;;;20.40;;
39314;SDS011;28703;44.412;11.918;2023-07-31T02:35:10;6.97;;;6.35;;
39314;SDS011;28703;44.412;11.918;2023-07-31T02:37:40;9.48;;;8.68;;
39314;SDS011;28703;44.412;11.918;2023-07-31T02:40:07;18.52;;;17.27;;
39314;SDS011;28703;44.412;11.918;2023-07-31T02:42:35;38.05;;;35.55;;
39314;SDS011;28703;44.412;11.918;2023-07-31T02:45:01;26.40;;;24.67;;
39314;SDS011;28703;44.412;11.918;2023-07-31T02:47:27;14.65;;;13.45;;
39314;SDS011;28703;44.412;11.918;2023-07-31T02:49:53;16.23;;;14.95;;
39314;SDS011;28703;44.412;11.918;2023-07-31T02:52:21;26.42;;;24.83;;
39314;SDS011;28703;44.412;11.918;2023-07-31T02:54:47;9.93;;;8.88;;
39314;SDS011;28703;44.412;11.918;2023-07-31T02:57:13;26.98;;;24.95;;
39314;SDS011;28703;44.412;11.918;2023-07-31T02:59:39;11.45;;;10.40;;
39314;SDS011;28703;44.412;11.918;2023-07-31T03:02:06;7.63;;;5.85;;
39314;SDS011;28703;44.412;11.918;2023-07-31T03:04:35;7.18;;;5.65;;
39314;SDS011;28703;44.412;11.918;2023-07-31T03:07:05;18.40;;;17.15;;
39314;SDS011;28703;44.412;11.918;2023-07-31T03:09:31;15.60;;;14.25;;
39314;SDS011;28703;44.412;11.918;2023-07-31T03:11:59;7.28;;;6.53;;
39314;SDS011;28703;44.412;11.918;2023-07-31T03:14:29;6.80;;;5.18;;
39314;SDS011;28703;44.412;11.918;2023-07-31T03:16:55;5.65;;;5.15;;
39314;SDS011;28703;44.412;11.918;2023-07-31T03:19:24;20.50;;;19.08;;
39314;SDS011;28703;44.412;11.918;2023-07-31T03:21:50;7.68;;;5.53;;
39314;SDS011;28703;44.412;11.918;2023-07-31T03:24:18;8.15;;;7.35;;
39314;SDS011;28703;44.412;11.918;2023-07-31T03:26:47;34.35;;;32.13;;
39314;SDS011;28703;44.412;11.918;2023-07-31T03:29:14;82.95;;;77.97;;
39314;SDS011;28703;44.412;11.918;2023-07-31T03:31:40;71.75;;;67.30;;
39314;SDS011;28703;44.412;11.918;2023-07-31T03:34:07;79.35;;;74.30;;
39314;SDS011;28703;44.412;11.918;2023-07-31T03:36:33;27.33;;;25.52;;
39314;SDS011;28703;44.412;11.918;2023-07-31T03:39:01;18.15;;;17.08;;
39314;SDS011;28703;44.412;11.918;2023-07-31T03:41:29;12.32;;;8.43;;
39314;SDS011;28703;44.412;11.918;2023-07-31T03:43:55;7.35;;;6.55;;
39314;SDS011;28703;44.412;11.918;2023-07-31T03:46:21;5.93;;;5.32;;
39314;SDS011;28703;44.412;11.918;2023-07-31T03:48:48;8.55;;;7.22;;
39314;SDS011;28703;44.412;11.918;2023-07-31T03:51:14;11.20;;;9.88;;
39314;SDS011;28703;44.412;11.918;2023-07-31T03:53:42;19.60;;;16.10;;
39314;SDS011;28703;44.412;11.918;2023-07-31T03:56:08;78.57;;;73.63;;
39314;SDS011;28703;44.412;11.918;2023-07-31T03:58:34;73.22;;;68.40;;
39314;SDS011;28703;44.412;11.918;2023-07-31T04:01:01;125.05;;;117.60;;
39314;SDS011;28703;44.412;11.918;2023-07-31T04:03:27;127.03;;;119.25;;
39314;SDS011;28703;44.412;11.918;2023-07-31T04:05:54;148.57;;;139.65;;
39314;SDS011;28703;44.412;11.918;2023-07-31T04:08:23;83.00;;;77.80;;
39314;SDS011;28703;44.412;11.918;2023-07-31T04:10:49;63.97;;;59.97;;
39314;SDS011;28703;44.412;11.918;2023-07-31T04:13:15;60.40;;;56.53;;
39314;SDS011;28703;44.412;11.918;2023-07-31T04:15:42;66.22;;;61.83;;
39314;SDS011;28703;44.412;11.918;2023-07-31T04:18:08;84.35;;;78.85;;
39314;SDS011;28703;44.412;11.918;2023-07-31T04:20:33;82.47;;;77.18;;
39314;SDS011;28703;44.412;11.918;2023-07-31T04:22:59;106.10;;;99.28;;
39314;SDS011;28703;44.412;11.918;2023-07-31T04:25:25;136.80;;;128.55;;
39314;SDS011;28703;44.412;11.918;2023-07-31T04:27:51;148.23;;;139.32;;
39314;SDS011;28703;44.412;11.918;2023-07-31T04:30:17;91.20;;;85.30;;
39314;SDS011;28703;44.412;11.918;2023-07-31T04:32:43;50.13;;;46.90;;
39314;SDS011;28703;44.412;11.918;2023-07-31T04:35:08;10.63;;;5.50;;
39314;SDS011;28703;44.412;11.918;2023-07-31T04:37:35;7.50;;;4.03;;
39314;SDS011;28703;44.412;11.918;2023-07-31T04:40:01;9.93;;;4.80;;
39314;SDS011;28703;44.412;11.918;2023-07-31T04:42:27;5.55;;;4.60;;
39314;SDS011;28703;44.412;11.918;2023-07-31T04:44:53;6.32;;;4.75;;
39314;SDS011;28703;44.412;11.918;2023-07-31T04:47:19;4.35;;;3.95;;
39314;SDS011;28703;44.412;11.918;2023-07-31T04:49:45;6.15;;;4.00;;
39314;SDS011;28703;44.412;11.918;2023-07-31T04:52:11;5.95;;;4.82;;
39314;SDS011;28703;44.412;11.918;2023-07-31T04:54:37;6.40;;;4.47;;
39314;SDS011;28703;44.412;11.918;2023-07-31T04:57:03;17.75;;;4.80;;
39314;SDS011;28703;44.412;11.918;2023-07-31T04:59:30;5.22;;;4.50;;
39314;SDS011;28703;44.412;11.918;2023-07-31T05:01:56;9.57;;;4.35;;
39314;SDS011;28703;44.412;11.918;2023-07-31T05:04:22;9.20;;;4.63;;
39314;SDS011;28703;44.412;11.918;2023-07-31T05:06:48;5.68;;;4.30;;
39314;SDS011;28703;44.412;11.918;2023-07-31T05:09:14;11.43;;;5.03;;
39314;SDS011;28703;44.412;11.918;2023-07-31T05:11:40;6.55;;;4.40;;
39314;SDS011;28703;44.412;11.918;2023-07-31T05:14:08;6.30;;;4.25;;
39314;SDS011;28703;44.412;11.918;2023-07-31T05:16:34;6.53;;;4.47;;
39314;SDS011;28703;44.412;11.918;2023-07-31T05:19:00;5.75;;;5.03;;
39314;SDS011;28703;44.412;11.918;2023-07-31T05:21:26;7.95;;;5.18;;
39314;SDS011;28703;44.412;11.918;2023-07-31T05:23:52;9.52;;;5.18;;
39314;SDS011;28703;44.412;11.918;2023-07-31T05:26:18;6.25;;;4.53;;
39314;SDS011;28703;44.412;11.918;2023-07-31T05:28:44;4.80;;;4.35;;
39314;SDS011;28703;44.412;11.918;2023-07-31T05:31:10;7.40;;;4.80;;
39314;SDS011;28703;44.412;11.918;2023-07-31T05:33:36;5.63;;;5.00;;
39314;SDS011;28703;44.412;11.918;2023-07-31T05:36:02;6.35;;;5.30;;
39314;SDS011;28703;44.412;11.918;2023-07-31T05:38:28;5.47;;;4.72;;
39314;SDS011;28703;44.412;11.918;2023-07-31T05:40:55;6.40;;;4.60;;
39314;SDS011;28703;44.412;11.918;2023-07-31T05:43:21;7.68;;;4.60;;
39314;SDS011;28703;44.412;11.918;2023-07-31T05:45:47;12.43;;;5.22;;
39314;SDS011;28703;44.412;11.918;2023-07-31T05:48:13;7.47;;;4.93;;
39314;SDS011;28703;44.412;11.918;2023-07-31T05:50:38;7.53;;;4.57;;
39314;SDS011;28703;44.412;11.918;2023-07-31T05:53:05;6.10;;;4.18;;
39314;SDS011;28703;44.412;11.918;2023-07-31T05:55:33;9.40;;;5.20;;
39314;SDS011;28703;44.412;11.918;2023-07-31T05:57:59;7.57;;;5.65;;
39314;SDS011;28703;44.412;11.918;2023-07-31T06:00:24;7.80;;;5.47;;
39314;SDS011;28703;44.412;11.918;2023-07-31T06:02:50;9.05;;;6.20;;
39314;SDS011;28703;44.412;11.918;2023-07-31T06:05:16;15.68;;;8.55;;
39314;SDS011;28703;44.412;11.918;2023-07-31T06:07:42;50.38;;;46.60;;
39314;SDS011;28703;44.412;11.918;2023-07-31T06:10:08;98.97;;;92.53;;
39314;SDS011;28703;44.412;11.918;2023-07-31T06:12:35;51.30;;;46.92;;
39314;SDS011;28703;44.412;11.918;2023-07-31T06:15:01;33.58;;;29.05;;
39314;SDS011;28703;44.412;11.918;2023-07-31T06:17:28;91.88;;;85.25;;
39314;SDS011;28703;44.412;11.918;2023-07-31T06:19:55;70.15;;;64.93;;
39314;SDS011;28703;44.412;11.918;2023-07-31T06:22:22;49.40;;;45.85;;
39314;SDS011;28703;44.412;11.918;2023-07-31T06:24:48;94.50;;;88.20;;
39314;SDS011;28703;44.412;11.918;2023-07-31T06:27:14;136.63;;;128.07;;
39314;SDS011;28703;44.412;11.918;2023-07-31T06:29:40;185.77;;;174.13;;
39314;SDS011;28703;44.412;11.918;2023-07-31T06:32:07;109.60;;;102.28;;
39314;SDS011;28703;44.412;11.918;2023-07-31T06:34:33;75.90;;;70.60;;
39314;SDS011;28703;44.412;11.918;2023-07-31T06:36:59;146.27;;;136.98;;
39314;SDS011;28703;44.412;11.918;2023-07-31T06:39:25;92.85;;;86.80;;
39314;SDS011;28703;44.412;11.918;2023-07-31T06:41:51;114.18;;;107.15;;
39314;SDS011;28703;44.412;11.918;2023-07-31T06:44:16;70.82;;;65.72;;
39314;SDS011;28703;44.412;11.918;2023-07-31T06:46:42;83.78;;;78.00;;
39314;SDS011;28703;44.412;11.918;2023-07-31T06:49:08;95.68;;;88.53;;
39314;SDS011;28703;44.412;11.918;2023-07-31T06:51:34;63.67;;;59.55;;
39314;SDS011;28703;44.412;11.918;2023-07-31T06:54:01;121.43;;;113.80;;
39314;SDS011;28703;44.412;11.918;2023-07-31T06:56:28;97.15;;;90.90;;
39314;SDS011;28703;44.412;11.918;2023-07-31T06:58:54;59.20;;;54.67;;
39314;SDS011;28703;44.412;11.918;2023-07-31T07:01:21;103.47;;;96.53;;
39314;SDS011;28703;44.412;11.918;2023-07-31T07:03:47;101.80;;;95.13;;
39314;SDS011;28703;44.412;11.918;2023-07-31T07:06:16;88.13;;;82.47;;
39314;SDS011;28703;44.412;11.918;2023-07-31T07:08:43;179.82;;;168.77;;
39314;SDS011;28703;44.412;11.918;2023-07-31T07:11:09;212.27;;;198.80;;
39314;SDS011;28703;44.412;11.918;2023-07-31T07:13:34;207.38;;;194.30;;
39314;SDS011;28703;44.412;11.918;2023-07-31T07:16:00;205.60;;;193.10;;
39314;SDS011;28703;44.412;11.918;2023-07-31T07:18:26;167.23;;;156.73;;
39314;SDS011;28703;44.412;11.918;2023-07-31T07:20:53;224.32;;;210.30;;
39314;SDS011;28703;44.412;11.918;2023-07-31T07:23:19;260.35;;;242.18;;
39314;SDS011;28703;44.412;11.918;2023-07-31T07:25:46;197.05;;;183.95;;
39314;SDS011;28703;44.412;11.918;2023-07-31T07:28:15;218.77;;;204.75;;
39314;SDS011;28703;44.412;11.918;2023-07-31T07:30:40;199.57;;;186.52;;
39314;SDS011;28703;44.412;11.918;2023-07-31T07:33:06;173.57;;;162.45;;
39314;SDS011;28703;44.412;11.918;2023-07-31T07:35:33;179.05;;;167.13;;
39314;SDS011;28703;44.412;11.918;2023-07-31T07:38:00;198.50;;;186.07;;
39314;SDS011;28703;44.412;11.918;2023-07-31T07:40:27;222.65;;;208.85;;
39314;SDS011;28703;44.412;11.918;2023-07-31T07:42:52;177.10;;;166.07;;
39314;SDS011;28703;44.412;11.918;2023-07-31T07:45:18;196.85;;;184.10;;
39314;SDS011;28703;44.412;11.918;2023-07-31T07:47:44;209.65;;;196.15;;
39314;SDS011;28703;44.412;11.918;2023-07-31T07:50:10;234.70;;;220.18;;
39314;SDS011;28703;44.412;11.918;2023-07-31T07:52:36;224.52;;;209.70;;
39314;SDS011;28703;44.412;11.918;2023-07-31T07:55:02;88.80;;;82.55;;
39314;SDS011;28703;44.412;11.918;2023-07-31T07:57:28;212.35;;;198.95;;
39314;SDS011;28703;44.412;11.918;2023-07-31T07:59:54;21.27;;;19.75;;
39314;SDS011;28703;44.412;11.918;2023-07-31T08:02:21;7.80;;;7.18;;
39314;SDS011;28703;44.412;11.918;2023-07-31T08:04:47;170.55;;;159.75;;
39314;SDS011;28703;44.412;11.918;2023-07-31T08:07:13;86.43;;;80.38;;
39314;SDS011;28703;44.412;11.918;2023-07-31T08:09:39;293.95;;;274.65;;
39314;SDS011;28703;44.412;11.918;2023-07-31T08:12:06;293.95;;;273.98;;
39314;SDS011;28703;44.412;11.918;2023-07-31T08:14:32;311.80;;;289.23;;
39314;SDS011;28703;44.412;11.918;2023-07-31T08:16:58;349.92;;;323.95;;
39314;SDS011;28703;44.412;11.918;2023-07-31T08:19:25;335.65;;;310.10;;
39314;SDS011;28703;44.412;11.918;2023-07-31T08:21:51;360.27;;;332.90;;
39314;SDS011;28703;44.412;11.918;2023-07-31T08:24:16;373.50;;;345.38;;
39314;SDS011;28703;44.412;11.918;2023-07-31T08:26:42;366.23;;;339.40;;
39314;SDS011;28703;44.412;11.918;2023-07-31T08:29:08;361.48;;;335.00;;
39314;SDS011;28703;44.412;11.918;2023-07-31T08:31:34;395.15;;;365.13;;
39314;SDS011;28703;44.412;11.918;2023-07-31T08:34:00;383.13;;;356.50;;
39314;SDS011;28703;44.412;11.918;2023-07-31T08:36:26;399.27;;;370.38;;
39314;SDS011;28703;44.412;11.918;2023-07-31T08:38:52;398.02;;;370.75;;
39314;SDS011;28703;44.412;11.918;2023-07-31T08:41:18;409.65;;;381.10;;
39314;SDS011;28703;44.412;11.918;2023-07-31T08:43:47;418.50;;;389.38;;
39314;SDS011;28703;44.412;11.918;2023-07-31T08:46:15;416.92;;;388.25;;
39314;SDS011;28703;44.412;11.918;2023-07-31T08:48:44;423.83;;;393.60;;
39314;SDS011;28703;44.412;11.918;2023-07-31T08:51:13;443.60;;;412.35;;
39314;SDS011;28703;44.412;11.918;2023-07-31T08:53:40;445.08;;;413.95;;
39314;SDS011;28703;44.412;11.918;2023-07-31T08:56:06;452.90;;;421.40;;
39314;SDS011;28703;44.412;11.918;2023-07-31T08:58:32;450.55;;;418.70;;
39314;SDS011;28703;44.412;11.918;2023-07-31T09:01:01;475.55;;;442.08;;
39314;SDS011;28703;44.412;11.918;2023-07-31T09:03:28;487.70;;;453.98;;
39314;SDS011;28703;44.412;11.918;2023-07-31T09:05:58;462.63;;;430.17;;
39314;SDS011;28703;44.412;11.918;2023-07-31T09:08:24;479.70;;;446.65;;
39314;SDS011;28703;44.412;11.918;2023-07-31T09:10:58;465.10;;;432.25;;
39314;SDS011;28703;44.412;11.918;2023-07-31T09:13:27;479.60;;;445.80;;
39314;SDS011;28703;44.412;11.918;2023-07-31T09:15:54;472.58;;;439.52;;
39314;SDS011;28703;44.412;11.918;2023-07-31T09:18:20;473.00;;;439.70;;
39314;SDS011;28703;44.412;11.918;2023-07-31T09:21:04;458.80;;;427.05;;
39314;SDS011;28703;44.412;11.918;2023-07-31T09:23:40;448.30;;;416.55;;
39314;SDS011;28703;44.412;11.918;2023-07-31T09:26:07;388.77;;;362.08;;
39314;SDS011;28703;44.412;11.918;2023-07-31T09:28:33;304.75;;;283.27;;
39314;SDS011;28703;44.412;11.918;2023-07-31T09:30:59;270.45;;;251.70;;
39314;SDS011;28703;44.412;11.918;2023-07-31T09:33:25;286.38;;;266.55;;
39314;SDS011;28703;44.412;11.918;2023-07-31T09:35:51;205.32;;;191.25;;
39314;SDS011;28703;44.412;11.918;2023-07-31T09:38:17;162.68;;;151.43;;
39314;SDS011;28703;44.412;11.918;2023-07-31T09:40:44;147.85;;;138.07;;
39314;SDS011;28703;44.412;11.918;2023-07-31T09:43:17;126.15;;;117.72;;
39314;SDS011;28703;44.412;11.918;2023-07-31T09:45:45;127.10;;;118.82;;
39314;SDS011;28703;44.412;11.918;2023-07-31T09:48:16;167.13;;;156.13;;
39314;SDS011;28703;44.412;11.918;2023-07-31T09:50:44;150.15;;;139.80;;
39314;SDS011;28703;44.412;11.918;2023-07-31T09:53:11;149.55;;;139.32;;
39314;SDS011;28703;44.412;11.918;2023-07-31T09:55:39;161.23;;;150.30;;
39314;SDS011;28703;44.412;11.918;2023-07-31T09:58:09;130.60;;;121.82;;
39314;SDS011;28703;44.412;11.918;2023-07-31T10:00:36;140.35;;;130.50;;
39314;SDS011;28703;44.412;11.918;2023-07-31T10:03:09;142.38;;;132.77;;
39314;SDS011;28703;44.412;11.918;2023-07-31T10:08:05;186.40;;;173.43;;
39314;SDS011;28703;44.412;11.918;2023-07-31T10:10:35;151.32;;;140.70;;
39314;SDS011;28703;44.412;11.918;2023-07-31T10:13:01;193.90;;;180.75;;
39314;SDS011;28703;44.412;11.918;2023-07-31T10:15:29;152.35;;;141.95;;
39314;SDS011;28703;44.412;11.918;2023-07-31T10:17:55;111.65;;;104.32;;
39314;SDS011;28703;44.412;11.918;2023-07-31T10:20:23;115.05;;;106.13;;
39314;SDS011;28703;44.412;11.918;2023-07-31T10:22:50;98.88;;;92.53;;
39314;SDS011;28703;44.412;11.918;2023-07-31T10:25:16;102.22;;;95.55;;
39314;SDS011;28703;44.412;11.918;2023-07-31T10:27:44;95.90;;;90.03;;
39314;SDS011;28703;44.412;11.918;2023-07-31T10:30:15;115.32;;;107.85;;
39314;SDS011;28703;44.412;11.918;2023-07-31T10:32:43;101.40;;;93.35;;
39314;SDS011;28703;44.412;11.918;2023-07-31T10:35:09;91.70;;;85.38;;
39314;SDS011;28703;44.412;11.918;2023-07-31T10:37:39;89.32;;;83.90;;
39314;SDS011;28703;44.412;11.918;2023-07-31T10:40:13;86.85;;;81.20;;
39314;SDS011;28703;44.412;11.918;2023-07-31T10:45:12;70.13;;;65.77;;
39314;SDS011;28703;44.412;11.918;2023-07-31T10:47:45;72.55;;;67.95;;
39314;SDS011;28703;44.412;11.918;2023-07-31T10:50:18;63.72;;;59.40;;
39314;SDS011;28703;44.412;11.918;2023-07-31T10:52:52;58.55;;;54.70;;
39314;SDS011;28703;44.412;11.918;2023-07-31T10:57:58;64.60;;;60.10;;
39314;SDS011;28703;44.412;11.918;2023-07-31T11:00:32;75.60;;;70.65;;
39314;SDS011;28703;44.412;11.918;2023-07-31T11:02:59;60.05;;;56.13;;
39314;SDS011;28703;44.412;11.918;2023-07-31T11:05:40;82.63;;;77.25;;
39314;SDS011;28703;44.412;11.918;2023-07-31T11:08:13;117.57;;;110.27;;
39314;SDS011;28703;44.412;11.918;2023-07-31T11:10:41;123.53;;;116.13;;
39314;SDS011;28703;44.412;11.918;2023-07-31T11:13:11;140.85;;;132.20;;
39314;SDS011;28703;44.412;11.918;2023-07-31T11:15:37;148.30;;;138.75;;
39314;SDS011;28703;44.412;11.918;2023-07-31T11:18:04;154.57;;;144.90;;
39314;SDS011;28703;44.412;11.918;2023-07-31T11:20:33;154.85;;;145.18;;
39314;SDS011;28703;44.412;11.918;2023-07-31T11:23:09;158.60;;;148.87;;
39314;SDS011;28703;44.412;11.918;2023-07-31T11:25:37;160.07;;;150.00;;
39314;SDS011;28703;44.412;11.918;2023-07-31T11:28:06;156.88;;;147.15;;
39314;SDS011;28703;44.412;11.918;2023-07-31T11:30:34;155.15;;;145.45;;
39314;SDS011;28703;44.412;11.918;2023-07-31T11:33:01;155.43;;;145.88;;
39314;SDS011;28703;44.412;11.918;2023-07-31T11:35:29;162.15;;;152.25;;
39314;SDS011;28703;44.412;11.918;2023-07-31T11:37:56;161.25;;;151.50;;
39314;SDS011;28703;44.412;11.918;2023-07-31T11:40:22;163.05;;;152.80;;
39314;SDS011;28703;44.412;11.918;2023-07-31T11:42:54;157.30;;;147.07;;
39314;SDS011;28703;44.412;11.918;2023-07-31T11:45:26;151.90;;;142.23;;
39314;SDS011;28703;44.412;11.918;2023-07-31T11:47:56;161.48;;;151.52;;
39314;SDS011;28703;44.412;11.918;2023-07-31T11:50:22;166.80;;;156.30;;
39314;SDS011;28703;44.412;11.918;2023-07-31T11:52:52;164.48;;;153.90;;
39314;SDS011;28703;44.412;11.918;2023-07-31T11:55:26;172.10;;;161.38;;
39314;SDS011;28703;44.412;11.918;2023-07-31T11:57:52;174.70;;;163.52;;
39314;SDS011;28703;44.412;11.918;2023-07-31T12:00:20;176.95;;;166.02;;
39314;SDS011;28703;44.412;11.918;2023-07-31T12:02:47;155.95;;;146.02;;
39314;SDS011;28703;44.412;11.918;2023-07-31T12:05:14;170.38;;;159.10;;
39314;SDS011;28703;44.412;11.918;2023-07-31T12:07:44;147.20;;;137.43;;
39314;SDS011;28703;44.412;11.918;2023-07-31T12:10:11;126.35;;;118.65;;
39314;SDS011;28703;44.412;11.918;2023-07-31T12:12:55;159.60;;;149.48;;
39314;SDS011;28703;44.412;11.918;2023-07-31T12:18:09;112.55;;;105.68;;
39314;SDS011;28703;44.412;11.918;2023-07-31T12:20:40;118.28;;;110.78;;
39314;SDS011;28703;44.412;11.918;2023-07-31T12:23:17;121.15;;;113.57;;
39314;SDS011;28703;44.412;11.918;2023-07-31T12:25:59;124.00;;;116.35;;
39314;SDS011;28703;44.412;11.918;2023-07-31T12:31:03;127.85;;;119.68;;
39314;SDS011;28703;44.412;11.918;2023-07-31T12:33:30;144.25;;;135.23;;
39314;SDS011;28703;44.412;11.918;2023-07-31T12:36:00;127.70;;;119.85;;
39314;SDS011;28703;44.412;11.918;2023-07-31T12:38:29;164.95;;;154.48;;
39314;SDS011;28703;44.412;11.918;2023-07-31T12:40:56;131.45;;;123.35;;
39314;SDS011;28703;44.412;11.918;2023-07-31T12:43:22;122.22;;;114.50;;
39314;SDS011;28703;44.412;11.918;2023-07-31T12:45:47;117.38;;;109.80;;
39314;SDS011;28703;44.412;11.918;2023-07-31T12:48:14;119.90;;;112.15;;
39314;SDS011;28703;44.412;11.918;2023-07-31T12:50:39;115.00;;;107.47;;
39314;SDS011;28703;44.412;11.918;2023-07-31T12:53:05;117.78;;;110.43;;
39314;SDS011;28703;44.412;11.918;2023-07-31T12:55:32;114.45;;;107.18;;
39314;SDS011;28703;44.412;11.918;2023-07-31T12:58:08;111.35;;;104.57;;
39314;SDS011;28703;44.412;11.918;2023-07-31T13:00:35;109.43;;;102.65;;
39314;SDS011;28703;44.412;11.918;2023-07-31T13:03:01;101.85;;;95.63;;
39314;SDS011;28703;44.412;11.918;2023-07-31T13:05:27;105.13;;;98.55;;
39314;SDS011;28703;44.412;11.918;2023-07-31T13:07:54;104.38;;;98.05;;
39314;SDS011;28703;44.412;11.918;2023-07-31T13:10:20;110.10;;;103.10;;
39314;SDS011;28703;44.412;11.918;2023-07-31T13:12:47;108.85;;;101.90;;
39314;SDS011;28703;44.412;11.918;2023-07-31T13:15:12;110.68;;;103.88;;
39314;SDS011;28703;44.412;11.918;2023-07-31T13:17:39;104.20;;;97.43;;
39314;SDS011;28703;44.412;11.918;2023-07-31T13:20:05;107.55;;;100.90;;
39314;SDS011;28703;44.412;11.918;2023-07-31T13:22:31;112.43;;;105.32;;
39314;SDS011;28703;44.412;11.918;2023-07-31T13:24:57;115.65;;;108.50;;
39314;SDS011;28703;44.412;11.918;2023-07-31T13:27:23;114.07;;;106.70;;
39314;SDS011;28703;44.412;11.918;2023-07-31T13:29:49;115.55;;;107.97;;
39314;SDS011;28703;44.412;11.918;2023-07-31T13:34:56;120.25;;;112.68;;
39314;SDS011;28703;44.412;11.918;2023-07-31T13:37:22;117.97;;;110.75;;
39314;SDS011;28703;44.412;11.918;2023-07-31T13:39:48;114.90;;;107.50;;
39314;SDS011;28703;44.412;11.918;2023-07-31T13:42:14;117.43;;;109.70;;
39314;SDS011;28703;44.412;11.918;2023-07-31T13:44:40;110.47;;;103.72;;
39314;SDS011;28703;44.412;11.918;2023-07-31T13:47:07;113.70;;;106.65;;
39314;SDS011;28703;44.412;11.918;2023-07-31T13:49:34;113.72;;;106.63;;
39314;SDS011;28703;44.412;11.918;2023-07-31T13:52:01;104.70;;;98.18;;
39314;SDS011;28703;44.412;11.918;2023-07-31T13:54:28;106.28;;;97.22;;
39314;SDS011;28703;44.412;11.918;2023-07-31T13:56:54;111.30;;;104.07;;
39314;SDS011;28703;44.412;11.918;2023-07-31T13:59:20;112.05;;;104.57;;
39314;SDS011;28703;44.412;11.918;2023-07-31T14:01:46;109.82;;;103.07;;
39314;SDS011;28703;44.412;11.918;2023-07-31T14:04:13;111.28;;;104.25;;
39314;SDS011;28703;44.412;11.918;2023-07-31T14:06:39;117.57;;;110.28;;
39314;SDS011;28703;44.412;11.918;2023-07-31T14:09:05;114.25;;;107.03;;
39314;SDS011;28703;44.412;11.918;2023-07-31T14:11:31;119.63;;;112.03;;
39314;SDS011;28703;44.412;11.918;2023-07-31T14:13:57;118.45;;;111.30;;
39314;SDS011;28703;44.412;11.918;2023-07-31T14:16:23;113.32;;;106.38;;
39314;SDS011;28703;44.412;11.918;2023-07-31T14:18:49;117.63;;;110.47;;
39314;SDS011;28703;44.412;11.918;2023-07-31T14:21:15;115.70;;;108.72;;
39314;SDS011;28703;44.412;11.918;2023-07-31T14:23:41;117.72;;;110.63;;
39314;SDS011;28703;44.412;11.918;2023-07-31T14:26:07;108.97;;;102.35;;